Time;durP1;ratioP1;P1;durP2;ratioP2;P2;SDS_P1;SDS_P2;PMS_P1;PMS_P2;Temp;Humidity;BMP_temperature;BMP_pressure;BME280_temperature;BME280_humidity;BME280_pressure;Samples;Min_cycle;Max_cycle;Signal;HPM_P1;HPM_P2
2023/06/21 00:01:18;;;;;;;0.83;0.83;;;;;;;22.68;78.49;95281.88;4318477;32;20264;-67
2023/06/21 00:03:44;;;;;;;1.40;1.30;;;;;;;22.67;77.68;95286.50;4354164;32;20252;-67
2023/06/21 00:06:13;;;;;;;1.43;1.33;;;;;;;22.66;77.93;95287.66;4336618;32;20196;-67
2023/06/21 00:08:48;;;;;;;1.77;1.77;;;;;;;22.63;78.68;95291.91;4313415;32;20197;-67
2023/06/21 00:11:15;;;;;;;2.00;1.83;;;;;;;22.67;78.09;95291.13;4353829;32;23191;-67
2023/06/21 00:13:43;;;;;;;1.47;1.43;;;;;;;22.65;77.50;95294.22;4355107;32;20177;-67
2023/06/21 00:16:14;;;;;;;1.50;1.43;;;;;;;22.60;78.70;95291.84;4372706;32;20201;-67
2023/06/21 00:18:43;;;;;;;1.70;1.60;;;;;;;22.57;78.03;95298.00;4375537;32;20319;-67
2023/06/21 00:21:10;;;;;;;1.27;1.23;;;;;;;22.60;77.92;95297.25;4354426;32;20227;-67
2023/06/21 00:23:36;;;;;;;1.03;1.03;;;;;;;22.58;78.06;95289.53;4327685;32;20189;-66
2023/06/21 00:26:03;;;;;;;1.53;1.53;;;;;;;22.61;78.59;95298.81;4365339;32;20203;-67
2023/06/21 00:28:31;;;;;;;1.90;1.80;;;;;;;22.55;78.44;95301.06;4345931;32;20193;-66
2023/06/21 00:30:58;;;;;;;1.10;1.10;;;;;;;22.62;77.66;95305.78;4353057;32;20200;-67
2023/06/21 00:33:26;;;;;;;3.23;2.30;;;;;;;22.63;78.17;95310.81;4365682;32;20192;-67
2023/06/21 00:35:56;;;;;;;7.63;1.67;;;;;;;22.56;79.28;95304.56;4349100;32;20215;-68
2023/06/21 00:38:21;;;;;;;3.13;1.97;;;;;;;22.49;80.37;95307.16;4324803;32;20184;-67
2023/06/21 00:40:49;;;;;;;2.27;2.07;;;;;;;22.54;80.69;95312.25;4349607;32;20236;-67
2023/06/21 00:43:18;;;;;;;1.00;1.00;;;;;;;22.47;81.12;95321.06;4330408;32;20255;-67
2023/06/21 00:45:48;;;;;;;2.43;2.23;;;;;;;22.41;81.73;95321.78;4316829;32;20266;-67
2023/06/21 00:48:16;;;;;;;2.23;2.10;;;;;;;22.49;82.40;95318.78;4349915;32;20246;-67
2023/06/21 00:50:42;;;;;;;1.90;1.77;;;;;;;22.45;82.44;95317.16;4342665;32;20212;-67
2023/06/21 00:53:12;;;;;;;2.73;2.53;;;;;;;22.43;82.72;95319.50;4322936;32;20251;-67
2023/06/21 00:55:47;;;;;;;1.20;1.20;;;;;;;22.39;83.55;95324.84;4367179;32;20208;-67
2023/06/21 00:58:15;;;;;;;2.37;2.27;;;;;;;22.46;83.75;95330.31;4340652;32;20180;-67
2023/06/21 01:00:43;;;;;;;1.87;1.87;;;;;;;22.39;82.75;95332.19;4367239;32;20203;-67
2023/06/21 01:03:13;;;;;;;2.23;2.00;;;;;;;22.34;83.78;95338.69;4361484;32;20212;-67
2023/06/21 01:05:41;;;;;;;3.50;2.40;;;;;;;22.27;84.56;95344.00;4316209;32;20196;-67
2023/06/21 01:08:34;;;;;;;2.80;2.07;;;;;;;22.31;84.26;95344.81;4332202;32;20185;-66
2023/06/21 01:11:34;;;;;;;1.67;1.57;;;;;;;22.29;84.62;95357.94;4336005;32;20200;-67
2023/06/21 01:14:19;;;;;;;1.50;1.50;;;;;;;22.27;84.51;95354.81;4311522;32;20249;-67
2023/06/21 01:16:51;;;;;;;1.57;1.53;;;;;;;22.25;84.58;95351.69;4351915;32;20329;-67
2023/06/21 01:19:36;;;;;;;2.10;2.00;;;;;;;22.24;84.57;95361.72;4330143;32;20304;-66
2023/06/21 01:22:37;;;;;;;1.87;1.77;;;;;;;22.33;83.72;95358.75;4347360;32;20185;-67
2023/06/21 01:25:57;;;;;;;2.00;1.77;;;;;;;22.31;84.21;95371.06;4312435;32;20188;-67
2023/06/21 01:29:12;;;;;;;2.23;2.13;;;;;;;22.21;83.92;95373.28;4307784;33;20201;-67
2023/06/21 01:31:40;;;;;;;2.27;2.07;;;;;;;22.26;83.96;95372.16;4348812;32;20189;-67
2023/06/21 01:34:30;;;;;;;3.17;1.80;;;;;;;22.33;83.46;95374.97;4329561;32;20185;-67
2023/06/21 01:36:57;;;;;;;2.93;2.73;;;;;;;22.25;83.85;95381.44;4373685;32;20185;-67
2023/06/21 01:39:30;;;;;;;1.63;1.57;;;;;;;22.24;83.88;95371.75;4367059;32;20181;-65
2023/06/21 01:41:56;;;;;;;1.93;1.83;;;;;;;22.21;83.40;95377.91;4367682;32;20180;-66
2023/06/21 01:44:46;;;;;;;1.90;1.80;;;;;;;22.19;83.59;95372.09;4355718;32;20211;-67
2023/06/21 01:47:13;;;;;;;1.50;1.50;;;;;;;22.19;83.36;95370.19;4345288;32;20189;-67
2023/06/21 01:49:41;;;;;;;3.00;2.80;;;;;;;22.29;83.48;95368.75;4331763;32;20262;-67
2023/06/21 01:52:08;;;;;;;4.40;1.83;;;;;;;22.29;83.14;95374.16;4345225;32;20181;-67
2023/06/21 01:54:34;;;;;;;4.47;2.93;;;;;;;22.25;82.74;95378.72;4354369;32;20181;-67
2023/06/21 01:57:07;;;;;;;1.37;1.37;;;;;;;22.19;82.61;95372.09;4350153;32;20226;-67
2023/06/21 01:59:36;;;;;;;1.57;1.47;;;;;;;22.20;82.55;95387.16;4370494;32;20205;-67
2023/06/21 02:02:05;;;;;;;2.27;2.17;;;;;;;22.23;81.81;95383.75;4356256;32;20212;-67
2023/06/21 02:04:33;;;;;;;2.93;2.73;;;;;;;22.21;81.74;95378.69;4342156;32;20199;-66
2023/06/21 02:07:02;;;;;;;1.17;1.17;;;;;;;22.21;81.72;95384.09;4358429;32;20300;-67
2023/06/21 02:09:29;;;;;;;1.40;1.30;;;;;;;22.13;81.64;95381.66;4368080;32;20203;-67
2023/06/21 02:11:56;;;;;;;1.23;1.23;;;;;;;22.12;81.82;95385.50;4380146;32;20172;-67
2023/06/21 02:14:31;;;;;;;3.80;2.83;;;;;;;22.23;81.18;95392.63;4350036;32;20249;-67
2023/06/21 02:16:58;;;;;;;2.63;2.00;;;;;;;22.21;81.66;95389.50;4327934;32;20214;-66
2023/06/21 02:19:26;;;;;;;1.63;1.53;;;;;;;22.22;81.70;95395.69;4367161;32;20172;-67
2023/06/21 02:21:53;;;;;;;1.00;1.00;;;;;;;22.15;82.11;95393.66;4342801;32;20185;-68
2023/06/21 02:24:22;;;;;;;1.70;1.63;;;;;;;22.20;81.61;95397.97;4335198;32;20180;-67
2023/06/21 02:26:49;;;;;;;6.93;1.80;;;;;;;22.23;81.56;95398.03;4359958;32;20196;-68
2023/06/21 02:29:18;;;;;;;2.77;1.70;;;;;;;22.23;81.53;95392.63;4353812;32;20281;-67
2023/06/21 02:31:45;;;;;;;1.40;1.40;;;;;;;22.18;81.77;95405.69;4331999;32;20276;-67
2023/06/21 02:34:12;;;;;;;5.53;1.63;;;;;;;22.13;81.76;95406.75;4361596;32;20181;-67
2023/06/21 02:36:39;;;;;;;1.37;1.27;;;;;;;22.19;81.74;95399.13;4329788;32;20232;-68
2023/06/21 02:39:08;;;;;;;2.17;1.97;;;;;;;22.08;81.96;95403.59;4334351;32;20202;-67
2023/06/21 02:41:34;;;;;;;0.80;0.80;;;;;;;22.09;82.53;95405.16;4348249;32;20237;-67
2023/06/21 02:43:59;;;;;;;1.50;1.40;;;;;;;21.98;82.38;95396.09;4353631;32;20254;-68
2023/06/21 02:46:30;;;;;;;1.90;1.70;;;;;;;21.97;82.55;95399.94;4354334;32;20177;-66
2023/06/21 02:48:57;;;;;;;1.70;1.60;;;;;;;22.02;82.60;95403.16;4314782;32;20236;-67
2023/06/21 02:51:25;;;;;;;1.23;1.23;;;;;;;21.95;82.86;95406.47;4364774;32;20192;-68
2023/06/21 02:53:52;;;;;;;3.33;1.43;;;;;;;21.93;82.75;95411.47;4333639;32;20244;-67
2023/06/21 02:56:20;;;;;;;1.67;1.53;;;;;;;21.94;82.58;95421.13;4316237;32;20186;-68
2023/06/21 02:58:47;;;;;;;2.37;2.17;;;;;;;22.06;81.95;95409.34;4351691;32;20230;-68
2023/06/21 03:01:17;;;;;;;1.70;1.60;;;;;;;22.03;82.20;95415.47;4335916;32;20193;-68
2023/06/21 03:03:47;;;;;;;0.97;0.97;;;;;;;21.97;82.33;95416.94;4351624;32;20279;-68
2023/06/21 03:06:14;;;;;;;2.37;2.17;;;;;;;21.98;82.02;95426.59;4339782;32;20185;-68
2023/06/21 03:08:41;;;;;;;5.60;1.90;;;;;;;21.94;82.30;95423.84;4310761;32;20240;-67
2023/06/21 03:11:08;;;;;;;0.97;0.93;;;;;;;21.94;82.83;95423.06;4362803;32;20212;-68
2023/06/21 03:13:37;;;;;;;1.27;1.27;;;;;;;21.89;82.62;95416.03;4336750;32;20193;-67
2023/06/21 03:16:02;;;;;;;1.90;1.80;;;;;;;21.97;82.28;95413.44;4350383;32;20243;-67
2023/06/21 03:18:29;;;;;;;1.17;1.17;;;;;;;21.88;82.62;95411.00;4339341;32;20244;-67
2023/06/21 03:21:17;;;;;;;1.83;1.73;;;;;;;21.93;82.43;95416.09;4340858;32;20193;-67
2023/06/21 03:23:43;;;;;;;2.00;1.90;;;;;;;21.90;82.60;95420.28;4357666;32;20203;-68
2023/06/21 03:26:09;;;;;;;2.10;2.00;;;;;;;21.92;82.59;95415.31;4342298;32;20240;-68
2023/06/21 03:28:36;;;;;;;1.10;1.10;;;;;;;21.87;82.80;95422.94;4358538;32;20193;-68
2023/06/21 03:31:05;;;;;;;6.63;1.47;;;;;;;21.95;82.40;95430.03;4337311;32;20249;-67
2023/06/21 03:33:33;;;;;;;0.80;0.80;;;;;;;21.92;82.55;95433.44;4344545;32;20242;-67
2023/06/21 03:36:05;;;;;;;3.33;2.23;;;;;;;21.99;82.33;95440.88;4336360;32;20207;-67
2023/06/21 03:38:33;;;;;;;1.87;1.77;;;;;;;21.92;82.80;95441.53;4344160;32;20308;-67
2023/06/21 03:40:59;;;;;;;1.63;1.53;;;;;;;21.90;82.90;95441.13;4326657;32;20189;-67
2023/06/21 03:43:27;;;;;;;1.20;1.10;;;;;;;21.93;83.12;95449.28;4321827;32;20291;-67
2023/06/21 03:46:00;;;;;;;1.23;1.13;;;;;;;21.94;82.96;95450.84;4337461;32;20193;-68
2023/06/21 03:48:27;;;;;;;1.77;1.67;;;;;;;21.90;83.18;95444.59;4319668;32;20239;-67
2023/06/21 03:50:57;;;;;;;1.00;1.00;;;;;;;21.84;83.30;95448.75;4327298;32;20197;-68
2023/06/21 03:53:27;;;;;;;1.13;1.13;;;;;;;21.72;83.92;95459.75;4369599;32;20288;-67
2023/06/21 03:55:57;;;;;;;0.90;0.90;;;;;;;21.87;83.46;95458.06;4304319;32;20219;-68
2023/06/21 03:58:23;;;;;;;2.27;2.17;;;;;;;21.99;82.93;95457.09;4338825;32;20197;-68
2023/06/21 04:00:51;;;;;;;2.40;2.20;;;;;;;22.03;82.58;95460.66;4342676;32;20184;-68
2023/06/21 04:03:20;;;;;;;1.67;1.60;;;;;;;21.90;83.36;95460.81;4314876;32;20185;-67
2023/06/21 04:05:49;;;;;;;1.60;1.23;;;;;;;21.87;83.32;95458.84;4354570;32;20193;-67
2023/06/21 04:08:17;;;;;;;1.73;1.37;;;;;;;21.89;83.00;95461.97;4333176;32;20330;-68
2023/06/21 04:10:45;;;;;;;2.83;2.13;;;;;;;21.98;82.59;95460.94;4364691;32;20203;-67
2023/06/21 04:13:12;;;;;;;1.70;1.60;;;;;;;22.01;82.39;95471.06;4326515;32;20181;-68
2023/06/21 04:15:40;;;;;;;1.80;1.70;;;;;;;21.95;82.64;95471.31;4325098;32;20185;-68
2023/06/21 04:18:07;;;;;;;2.10;1.97;;;;;;;21.91;82.54;95469.72;4339017;32;20229;-67
2023/06/21 04:20:32;;;;;;;4.00;2.47;;;;;;;21.96;82.31;95469.41;4329424;32;20217;-67
2023/06/21 04:22:58;;;;;;;1.77;1.70;;;;;;;21.95;82.76;95463.22;4333072;32;20189;-67
2023/06/21 04:25:24;;;;;;;2.13;1.47;;;;;;;21.98;82.49;95464.41;4345800;32;20203;-65
2023/06/21 04:27:50;;;;;;;1.07;1.07;;;;;;;21.87;82.71;95466.94;4330182;32;20193;-68
2023/06/21 04:30:18;;;;;;;6.40;2.77;;;;;;;21.97;82.70;95472.87;4362987;32;20229;-68
2023/06/21 04:32:45;;;;;;;1.13;1.13;;;;;;;21.90;83.01;95466.22;4326533;32;20192;-67
2023/06/21 04:35:17;;;;;;;2.60;2.23;;;;;;;21.87;82.88;95464.25;4359947;32;20196;-67
2023/06/21 04:37:49;;;;;;;1.80;1.70;;;;;;;21.95;82.69;95462.44;4322656;32;20212;-67
2023/06/21 04:40:24;;;;;;;1.23;1.23;;;;;;;21.89;82.78;95470.06;4349441;32;20252;-69
2023/06/21 04:42:55;;;;;;;1.87;1.77;;;;;;;21.91;82.64;95462.38;4330804;32;20218;-67
2023/06/21 04:45:28;;;;;;;6.77;2.30;;;;;;;21.88;82.89;95460.41;4336289;32;20195;-68
2023/06/21 04:47:57;;;;;;;2.03;1.70;;;;;;;21.75;83.22;95469.84;4319869;32;20252;-68
2023/06/21 04:50:24;;;;;;;1.70;1.60;;;;;;;21.85;82.74;95471.91;4334591;32;20185;-68
2023/06/21 04:52:58;;;;;;;1.57;1.47;;;;;;;21.92;82.41;95469.34;4287670;32;20203;-68
2023/06/21 04:55:26;;;;;;;5.10;2.90;;;;;;;21.91;82.33;95472.41;4340868;32;20188;-67
2023/06/21 04:57:58;;;;;;;1.83;1.73;;;;;;;21.91;82.17;95472.41;4276320;32;20261;-67
2023/06/21 05:00:26;;;;;;;1.87;1.77;;;;;;;21.92;82.05;95474.75;4300007;32;20185;-67
2023/06/21 05:02:53;;;;;;;1.63;1.53;;;;;;;22.02;81.75;95478.03;4301512;32;20204;-68
2023/06/21 05:05:20;;;;;;;8.10;2.80;;;;;;;21.93;82.40;95470.91;4337101;32;20290;-68
2023/06/21 05:07:47;;;;;;;1.47;1.40;;;;;;;21.99;82.13;95478.72;4349721;32;20277;-67
2023/06/21 05:10:15;;;;;;;1.63;1.53;;;;;;;22.06;81.81;95484.25;4369020;32;20257;-67
2023/06/21 05:12:40;;;;;;;7.17;2.87;;;;;;;21.99;82.30;95484.13;4358493;32;20239;-68
2023/06/21 05:15:10;;;;;;;2.80;2.60;;;;;;;21.97;82.64;95486.41;4358830;32;20278;-67
2023/06/21 05:20:58;;;;;;;4.40;2.53;;;;;;;21.94;83.17;95488.69;4303691;32;20276;-67
2023/06/21 05:23:25;;;;;;;5.93;2.53;;;;;;;21.93;82.35;95495.22;4356356;32;20190;-65
2023/06/21 05:26:12;;;;;;;1.23;1.23;;;;;;;22.04;82.13;95506.22;4330527;32;20211;-67
2023/06/21 05:28:39;;;;;;;7.10;2.17;;;;;;;22.03;82.48;95507.34;4376040;32;20263;-67
2023/06/21 05:31:06;;;;;;;3.20;2.00;;;;;;;22.00;82.57;95501.88;4376323;32;20211;-67
2023/06/21 05:33:33;;;;;;;3.60;1.77;;;;;;;22.04;81.97;95506.22;4352715;32;20188;-67
2023/06/21 05:36:00;;;;;;;1.83;1.73;;;;;;;21.97;83.12;95513.41;4350087;32;20189;-67
2023/06/21 05:38:25;;;;;;;2.13;2.03;;;;;;;22.01;82.46;95517.00;4345630;32;20242;-67
2023/06/21 05:40:51;;;;;;;1.93;1.83;;;;;;;22.05;82.67;95524.00;4323215;32;20197;-67
2023/06/21 05:43:20;;;;;;;2.97;2.77;;;;;;;22.12;82.34;95526.03;4345929;32;20209;-67
2023/06/21 05:45:47;;;;;;;1.60;1.50;;;;;;;22.15;81.99;95518.00;4340919;32;20209;-67
2023/06/21 05:48:14;;;;;;;2.87;2.30;;;;;;;22.18;81.57;95530.00;4342374;32;20213;-67
2023/06/21 05:50:41;;;;;;;1.87;1.77;;;;;;;22.23;81.46;95538.59;4348670;32;20320;-67
2023/06/21 05:53:08;;;;;;;1.90;1.80;;;;;;;22.28;81.79;95545.59;4322813;32;20256;-67
2023/06/21 05:55:35;;;;;;;1.17;1.17;;;;;;;22.32;81.65;95546.44;4345458;32;20241;-67
2023/06/21 05:58:01;;;;;;;2.90;2.70;;;;;;;22.41;80.99;95548.91;4348731;32;20237;-68
2023/06/21 06:00:30;;;;;;;1.27;1.23;;;;;;;22.48;80.96;95554.41;4349350;32;20232;-67
2023/06/21 06:02:57;;;;;;;1.83;1.73;;;;;;;22.54;80.40;95553.72;4335890;32;20197;-66
2023/06/21 06:05:23;;;;;;;1.87;1.87;;;;;;;22.59;80.18;95550.72;4335542;32;20190;-67
2023/06/21 06:07:49;;;;;;;1.33;1.30;;;;;;;22.67;80.39;95556.22;4346953;32;20201;-67
2023/06/21 06:10:15;;;;;;;1.93;1.83;;;;;;;22.70;79.86;95561.69;4347455;32;20272;-68
2023/06/21 06:12:41;;;;;;;1.27;1.27;;;;;;;22.76;78.89;95562.94;4346207;32;20240;-67
2023/06/21 06:15:08;;;;;;;2.93;2.23;;;;;;;22.79;79.23;95575.78;4320731;32;20248;-61
2023/06/21 06:17:35;;;;;;;9.30;4.77;;;;;;;22.83;78.06;95578.53;4358677;32;20275;-62
2023/06/21 06:20:05;;;;;;;3.67;3.00;;;;;;;23.00;76.04;95586.09;4264661;32;20289;-61
2023/06/21 06:22:34;;;;;;;5.03;3.10;;;;;;;23.08;75.34;95574.22;4334677;32;20192;-61
2023/06/21 06:25:03;;;;;;;2.67;2.47;;;;;;;23.15;73.86;95582.44;4336965;32;20186;-61
2023/06/21 06:27:31;;;;;;;2.10;1.90;;;;;;;23.22;73.29;95585.25;4324251;32;20216;-61
2023/06/21 06:29:59;;;;;;;3.20;3.00;;;;;;;23.27;74.16;95589.56;4339525;32;20251;-61
2023/06/21 06:32:28;;;;;;;1.57;1.57;;;;;;;23.34;72.92;95591.56;4347261;32;20192;-61
2023/06/21 06:34:56;;;;;;;1.90;1.80;;;;;;;23.36;75.66;95587.34;4355737;32;20200;-61
2023/06/21 06:37:24;;;;;;;3.00;2.30;;;;;;;23.36;74.42;95587.34;4366457;32;20185;-62
2023/06/21 06:39:57;;;;;;;1.83;1.73;;;;;;;23.39;75.51;95594.72;4352026;32;20201;-61
2023/06/21 06:42:27;;;;;;;1.20;1.20;;;;;;;23.42;75.56;95595.91;4342917;32;20188;-62
2023/06/21 06:44:53;;;;;;;1.03;1.03;;;;;;;23.48;74.64;95605.28;4374275;32;20188;-62
2023/06/21 06:47:20;;;;;;;2.47;2.37;;;;;;;23.50;74.75;95600.25;4346158;32;20319;-61
2023/06/21 06:49:48;;;;;;;13.63;2.10;;;;;;;23.57;74.36;95597.66;4365801;32;20185;-62
2023/06/21 06:52:17;;;;;;;1.80;1.70;;;;;;;23.57;73.36;95603.87;4323421;32;20192;-62
2023/06/21 06:54:44;;;;;;;1.53;1.53;;;;;;;23.62;74.29;95602.78;4355790;32;20261;-61
2023/06/21 06:57:11;;;;;;;2.00;1.90;;;;;;;23.66;74.21;95609.00;4358022;32;20201;-61
2023/06/21 06:59:37;;;;;;;3.57;2.67;;;;;;;23.79;72.78;95610.31;4343587;32;20213;-61
2023/06/21 07:02:05;;;;;;;6.70;2.40;;;;;;;23.81;71.81;95608.00;4331623;32;20189;-61
2023/06/21 07:04:32;;;;;;;2.80;2.03;;;;;;;23.61;71.95;95609.34;4347503;32;20302;-61
2023/06/21 07:07:01;;;;;;;3.27;2.03;;;;;;;23.59;72.73;95608.91;4328874;32;20198;-61
2023/06/21 07:09:26;;;;;;;1.23;1.20;;;;;;;23.52;73.21;95606.13;4366032;32;20180;-62
2023/06/21 07:11:56;;;;;;;3.60;1.53;;;;;;;23.55;72.88;95608.88;4353918;32;20222;-62
2023/06/21 07:14:26;;;;;;;3.70;2.60;;;;;;;23.56;73.22;95620.50;4347720;32;20328;-61
2023/06/21 07:16:51;;;;;;;2.33;2.23;;;;;;;23.58;73.35;95612.78;4349643;32;20207;-62
2023/06/21 07:19:18;;;;;;;4.60;2.47;;;;;;;23.46;73.58;95602.16;4369459;32;20192;-61
2023/06/21 07:21:45;;;;;;;1.37;1.27;;;;;;;23.64;72.83;95601.25;4369307;32;20206;-61
2023/06/21 07:24:15;;;;;;;8.33;2.07;;;;;;;23.57;72.96;95611.22;4340627;32;20228;-61
2023/06/21 07:26:41;;;;;;;2.13;2.03;;;;;;;23.58;73.05;95610.84;4334677;32;20289;-61
2023/06/21 07:29:07;;;;;;;3.00;2.73;;;;;;;23.62;73.35;95613.59;4329796;32;20192;-61
2023/06/21 07:31:33;;;;;;;2.07;1.87;;;;;;;23.80;72.84;95609.16;4352767;32;20298;-61
2023/06/21 07:34:00;;;;;;;2.10;2.00;;;;;;;23.98;72.03;95612.06;4338020;32;20197;-61
2023/06/21 07:36:27;;;;;;;4.10;2.13;;;;;;;24.03;72.33;95613.66;4351402;32;20260;-61
2023/06/21 07:38:54;;;;;;;1.70;1.60;;;;;;;24.04;71.37;95607.06;4315960;32;20188;-62
2023/06/21 07:41:20;;;;;;;1.77;1.67;;;;;;;23.84;71.57;95617.34;4337173;32;20201;-61
2023/06/21 07:43:46;;;;;;;3.20;2.00;;;;;;;23.79;72.26;95610.31;4328295;32;20273;-61
2023/06/21 07:46:16;;;;;;;6.63;3.60;;;;;;;23.67;73.01;95610.56;4312311;32;20205;-61
2023/06/21 07:48:42;;;;;;;2.40;2.30;;;;;;;23.85;73.71;95611.53;4361666;32;20242;-61
2023/06/21 07:51:09;;;;;;;5.53;2.00;;;;;;;24.05;71.38;95605.94;4364396;32;20196;-61
2023/06/21 07:53:34;;;;;;;3.20;2.43;;;;;;;24.11;71.78;95602.47;4360218;32;20264;-61
2023/06/21 07:56:01;;;;;;;2.23;2.13;;;;;;;24.23;70.31;95606.88;4351404;32;20223;-61
2023/06/21 07:58:33;;;;;;;2.30;2.20;;;;;;;24.32;71.13;95604.63;4315564;32;20192;-61
2023/06/21 08:00:59;;;;;;;1.70;1.60;;;;;;;24.32;70.29;95599.22;4345686;32;20227;-61
2023/06/21 08:03:26;;;;;;;2.87;2.77;;;;;;;24.47;69.44;95595.50;4350028;32;20203;-61
2023/06/21 08:05:53;;;;;;;3.57;3.33;;;;;;;24.49;69.06;95604.03;4336032;32;20185;-62
2023/06/21 08:08:20;;;;;;;2.80;2.60;;;;;;;24.59;67.55;95602.53;4337572;32;20176;-61
2023/06/21 08:10:56;;;;;;;1.70;1.70;;;;;;;24.68;67.08;95605.72;4356172;32;20344;-62
2023/06/21 08:13:23;;;;;;;1.57;1.47;;;;;;;24.58;68.00;95596.34;4333838;32;20281;-62
2023/06/21 08:15:51;;;;;;;7.73;6.43;;;;;;;24.66;67.45;95597.97;4363337;32;20257;-61
2023/06/21 08:18:17;;;;;;;2.97;2.77;;;;;;;24.65;67.33;95593.69;4361334;32;20193;-62
2023/06/21 08:20:44;;;;;;;5.60;3.23;;;;;;;24.77;66.27;95594.53;4321728;32;20217;-61
2023/06/21 08:23:12;;;;;;;5.53;5.23;;;;;;;24.84;65.71;95586.44;4354240;32;20238;-61
2023/06/21 08:25:38;;;;;;;3.50;3.30;;;;;;;24.89;65.48;95592.28;4333154;32;20200;-61
2023/06/21 08:28:09;;;;;;;4.53;4.23;;;;;;;24.82;66.75;95583.31;4341697;32;20232;-61
2023/06/21 08:30:35;;;;;;;3.80;3.43;;;;;;;24.89;66.76;95588.81;4370918;32;20223;-61
2023/06/21 08:33:01;;;;;;;1.83;1.73;;;;;;;24.84;66.33;95591.88;4343114;32;20349;-62
2023/06/21 08:35:27;;;;;;;1.00;1.00;;;;;;;24.90;65.37;95590.38;4365697;32;20189;-61
2023/06/21 08:37:57;;;;;;;2.17;1.93;;;;;;;24.92;65.56;95593.47;4356528;32;20241;-61
2023/06/21 08:40:26;;;;;;;2.37;2.17;;;;;;;25.03;64.62;95596.28;4351176;32;20198;-61
2023/06/21 08:42:53;;;;;;;1.20;1.20;;;;;;;25.22;63.25;95594.06;4346158;32;20201;-61
2023/06/21 08:45:19;;;;;;;1.20;1.20;;;;;;;25.21;62.65;95600.63;4311586;32;20190;-69
2023/06/21 08:47:47;;;;;;;4.33;1.90;;;;;;;25.20;62.96;95596.37;4358470;32;20318;-69
2023/06/21 08:50:37;;;;;;;2.20;1.47;;;;;;;25.24;62.75;95593.66;4378878;32;20245;-69
2023/06/21 08:53:06;;;;;;;2.27;2.10;;;;;;;25.33;63.95;95586.75;4362806;32;20249;-68
2023/06/21 08:55:44;;;;;;;1.50;1.40;;;;;;;25.48;63.47;95597.66;4336567;32;20259;-68
2023/06/21 08:58:16;;;;;;;1.33;1.33;;;;;;;25.79;61.72;95591.56;4374692;32;20227;-70
2023/06/21 09:00:54;;;;;;;1.70;1.53;;;;;;;25.84;61.03;95593.91;4345866;32;20256;-68
2023/06/21 09:03:27;;;;;;;0.87;0.87;;;;;;;26.00;59.22;95602.50;4319463;32;20202;-69
2023/06/21 09:06:06;;;;;;;1.50;1.40;;;;;;;26.01;59.20;95597.84;4356357;32;20196;-69
2023/06/21 09:08:33;;;;;;;1.30;1.30;;;;;;;26.13;57.36;95604.88;4360810;32;20231;-67
2023/06/21 09:11:05;;;;;;;2.10;1.10;;;;;;;26.13;58.02;95616.53;4345200;32;20227;-67
2023/06/21 09:13:34;;;;;;;2.10;1.97;;;;;;;26.18;58.56;95618.09;4337894;32;20243;-67
2023/06/21 09:16:03;;;;;;;4.67;2.00;;;;;;;26.17;58.33;95613.81;4321569;32;20251;-68
2023/06/21 09:18:35;;;;;;;3.60;1.77;;;;;;;26.13;59.40;95605.66;4314744;32;20186;-67
2023/06/21 09:21:05;;;;;;;2.67;2.23;;;;;;;26.16;58.73;95607.59;4343667;32;20211;-68
2023/06/21 09:23:31;;;;;;;1.90;1.80;;;;;;;26.35;58.07;95601.03;4292444;32;20283;-69
2023/06/21 09:25:57;;;;;;;1.60;1.50;;;;;;;26.43;58.03;95613.47;4339647;32;20189;-68
2023/06/21 09:28:24;;;;;;;2.23;1.77;;;;;;;26.50;57.55;95607.25;4350091;32;20185;-69
2023/06/21 09:30:49;;;;;;;1.33;1.27;;;;;;;26.58;56.56;95620.50;4331742;32;20212;-68
2023/06/21 09:33:16;;;;;;;1.53;1.30;;;;;;;26.50;57.87;95618.91;4333194;32;20248;-68
2023/06/21 09:35:43;;;;;;;0.97;0.87;;;;;;;26.48;58.09;95621.25;4323325;32;20213;-70
2023/06/21 09:38:32;;;;;;;0.83;0.77;;;;;;;26.48;58.46;95609.59;4344032;32;20215;-69
2023/06/21 09:41:00;;;;;;;1.23;1.23;;;;;;;26.51;59.46;95604.16;4366175;32;20185;-69
2023/06/21 09:43:26;;;;;;;1.10;1.10;;;;;;;26.64;59.27;95594.41;4352306;32;20283;-71
2023/06/21 09:46:05;;;;;;;1.77;1.73;;;;;;;26.86;58.93;95592.44;4323108;32;20186;-71
2023/06/21 09:48:37;;;;;;;3.07;2.20;;;;;;;26.89;59.67;95580.00;4339864;32;20234;-71
2023/06/21 09:51:06;;;;;;;1.50;1.40;;;;;;;27.01;58.80;95576.91;4352056;32;20205;-71
2023/06/21 09:53:31;;;;;;;1.57;1.43;;;;;;;27.10;58.29;95568.28;4326356;32;20216;-69
2023/06/21 09:56:02;;;;;;;1.57;1.47;;;;;;;27.14;58.83;95569.06;4314709;32;20204;-69
2023/06/21 09:58:50;;;;;;;2.53;2.33;;;;;;;27.29;57.92;95571.34;4300803;32;20197;-69
2023/06/21 10:01:18;;;;;;;2.60;1.83;;;;;;;27.37;57.81;95583.78;4341025;32;20192;-69
2023/06/21 10:03:53;;;;;;;1.60;1.50;;;;;;;27.36;57.76;95598.59;4305191;32;20196;-63
2023/06/21 10:06:28;;;;;;;8.90;2.40;;;;;;;27.10;58.25;95614.59;4341521;32;20185;-62
2023/06/21 10:08:54;;;;;;;2.07;1.53;;;;;;;26.90;59.29;95625.91;4302104;32;20203;-62
2023/06/21 10:11:22;;;;;;;0.80;0.80;;;;;;;26.67;60.24;95639.91;4373395;32;20173;-62
2023/06/21 10:13:49;;;;;;;1.60;1.60;;;;;;;26.28;60.27;95660.84;4321069;32;20283;-62
2023/06/21 10:16:20;;;;;;;1.97;1.87;;;;;;;26.21;61.19;95671.72;4329292;32;20264;-62
2023/06/21 10:18:47;;;;;;;2.43;2.33;;;;;;;26.24;60.85;95685.31;4315234;32;20299;-62
2023/06/21 10:21:15;;;;;;;3.07;1.33;;;;;;;26.18;61.30;95699.72;4304720;32;20299;-62
2023/06/21 10:23:43;;;;;;;2.07;1.93;;;;;;;26.07;61.48;95709.75;4280116;32;20214;-62
2023/06/21 10:26:14;;;;;;;1.20;1.10;;;;;;;25.89;63.39;95698.81;4344592;32;20315;-61
2023/06/21 10:28:45;;;;;;;2.10;1.90;;;;;;;25.96;62.29;95705.06;4335224;32;20231;-61
2023/06/21 10:31:17;;;;;;;1.73;1.63;;;;;;;26.06;61.92;95725.31;4353581;32;20185;-61
2023/06/21 10:33:45;;;;;;;2.03;1.93;;;;;;;26.03;61.84;95718.69;4315907;32;20200;-62
2023/06/21 10:36:30;;;;;;;1.60;1.50;;;;;;;26.21;61.98;95704.34;4322519;32;20204;-62
2023/06/21 10:39:15;;;;;;;2.40;1.80;;;;;;;26.42;60.64;95695.50;4346853;32;20188;-61
2023/06/21 10:41:44;;;;;;;1.33;1.23;;;;;;;26.36;60.77;95706.00;4339651;32;20209;-62
2023/06/21 10:44:11;;;;;;;1.30;1.13;;;;;;;26.44;60.80;95707.56;4353272;32;20184;-62
2023/06/21 10:46:41;;;;;;;2.13;1.87;;;;;;;26.51;60.52;95717.69;4339620;32;20192;-62
2023/06/21 10:49:11;;;;;;;4.07;1.77;;;;;;;26.29;61.55;95722.28;4377171;32;20196;-62
2023/06/21 10:51:40;;;;;;;2.47;2.37;;;;;;;26.14;61.69;95720.66;4378703;32;20229;-62
2023/06/21 10:54:08;;;;;;;1.77;1.40;;;;;;;26.01;62.88;95723.72;4352497;32;20184;-62
2023/06/21 10:56:45;;;;;;;1.43;1.33;;;;;;;26.08;63.27;95722.19;4344091;32;20211;-62
2023/06/21 10:59:19;;;;;;;1.67;1.57;;;;;;;25.96;62.75;95743.16;4351952;32;20245;-63
2023/06/21 11:01:46;;;;;;;1.07;1.07;;;;;;;25.48;62.39;95752.56;4322307;32;20215;-62
2023/06/21 11:04:14;;;;;;;1.00;1.00;;;;;;;25.17;60.09;95754.66;4325389;32;20241;-64
2023/06/21 11:06:41;;;;;;;5.90;1.63;;;;;;;24.91;57.53;95749.38;4367055;32;20193;-62
2023/06/21 11:09:16;;;;;;;3.40;1.23;;;;;;;24.95;58.54;95761.06;4361079;32;20196;-62
2023/06/21 11:11:49;;;;;;;4.77;1.93;;;;;;;24.85;59.38;95756.31;4367758;32;20275;-61
2023/06/21 11:14:38;;;;;;;1.83;1.73;;;;;;;24.83;59.88;95758.59;4384744;32;20403;-62
2023/06/21 11:17:26;;;;;;;1.00;1.00;;;;;;;24.76;59.13;95758.53;4337883;32;20260;-62
2023/06/21 11:19:54;;;;;;;1.77;1.67;;;;;;;24.74;59.08;95758.13;4308503;32;20301;-62
2023/06/21 11:22:26;;;;;;;2.67;1.17;;;;;;;24.69;59.28;95758.47;4360825;32;20184;-62
2023/06/21 11:25:00;;;;;;;13.60;1.90;;;;;;;24.73;58.52;95759.31;4349154;32;20202;-62
2023/06/21 11:27:28;;;;;;;1.30;1.20;;;;;;;24.64;59.13;95757.66;4352496;32;20238;-61
2023/06/21 11:30:09;;;;;;;3.50;1.33;;;;;;;24.66;59.64;95770.87;4331436;32;20189;-62
2023/06/21 11:32:37;;;;;;;1.67;1.40;;;;;;;24.70;59.91;95776.31;4348499;32;20248;-61
2023/06/21 11:35:09;;;;;;;1.33;1.13;;;;;;;24.74;59.15;95771.69;4318821;32;20212;-62
2023/06/21 11:37:44;;;;;;;2.17;1.53;;;;;;;24.75;60.24;95765.91;4348893;32;20176;-62
2023/06/21 11:40:24;;;;;;;1.07;1.07;;;;;;;24.70;60.18;95758.13;4332881;32;20197;-62
2023/06/21 11:42:54;;;;;;;0.97;0.97;;;;;;;24.78;59.00;95745.38;4370632;32;20181;-62
2023/06/21 11:46:06;;;;;;;2.10;1.90;;;;;;;24.67;63.29;95726.28;4340711;32;20204;-62
2023/06/21 11:48:39;;;;;;;1.67;1.57;;;;;;;24.62;62.36;95727.41;4344948;32;20216;-61
2023/06/21 11:51:12;;;;;;;1.73;1.63;;;;;;;24.60;62.88;95740.56;4279773;32;20215;-62